createdAt,value
2018-11-07T00:01:50.709Z,97655.09
2018-11-07T00:04:20.322Z,97654.69
2018-11-07T00:06:50.005Z,97659.72
2018-11-07T00:09:19.531Z,97661.81
2018-11-07T00:11:49.234Z,97666.00
2018-11-07T00:14:18.817Z,97669.79
2018-11-07T00:16:48.453Z,97665.19
2018-11-07T00:19:18.094Z,97661.82
2018-11-07T00:21:47.781Z,97663.95
2018-11-07T00:24:17.406Z,97668.55
2018-11-07T00:26:47.097Z,97672.77
2018-11-07T00:29:16.713Z,97666.83
2018-11-07T00:31:46.419Z,97668.95
2018-11-07T00:34:16.020Z,97679.50
2018-11-07T00:36:45.738Z,97684.97
2018-11-07T00:39:15.368Z,97685.39
2018-11-07T00:41:45.212Z,97685.81
2018-11-07T00:44:14.834Z,97693.76
2018-11-07T00:46:44.551Z,97697.13
2018-11-07T00:49:14.179Z,97704.70
2018-11-07T00:51:43.879Z,97695.45
2018-11-07T00:54:13.543Z,97694.15
2018-11-07T00:56:43.201Z,97690.30
2018-11-07T00:59:12.830Z,97689.05
2018-11-07T01:01:42.531Z,97682.73
2018-11-07T01:04:12.156Z,97673.53
2018-11-07T01:06:41.831Z,97678.61
2018-11-07T01:09:13.249Z,97677.77
2018-11-07T01:11:43.669Z,97678.17
2018-11-07T01:14:13.323Z,97675.63
2018-11-07T01:16:43.092Z,97676.41
2018-11-07T01:19:12.680Z,97672.55
2018-11-07T01:21:42.323Z,97678.40
2018-11-07T01:24:11.977Z,97669.91
2018-11-07T01:26:41.642Z,97681.65
2018-11-07T01:29:11.279Z,97680.00
2018-11-07T01:31:41.148Z,97673.72
2018-11-07T01:34:10.760Z,97674.11
2018-11-07T01:36:40.389Z,97667.88
2018-11-07T01:39:10.686Z,97670.42
2018-11-07T01:41:40.698Z,97673.80
2018-11-07T01:44:10.615Z,97669.59
2018-11-07T01:46:40.260Z,97664.09
2018-11-07T01:49:09.924Z,97656.14
2018-11-07T01:51:39.617Z,97646.92
2018-11-07T01:54:09.222Z,97643.13
2018-11-07T01:56:38.858Z,97648.97
2018-11-07T01:59:08.543Z,97641.86
2018-11-07T02:01:38.224Z,97638.01
2018-11-07T02:04:07.925Z,97633.81
2018-11-07T02:06:37.637Z,97631.22
2018-11-07T02:09:09.731Z,97625.80
2018-11-07T02:11:39.400Z,97626.09
2018-11-07T02:14:09.024Z,97623.25
2018-11-07T02:16:38.726Z,97628.73
2018-11-07T02:19:08.366Z,97625.70
2018-11-07T02:21:38.034Z,97632.38
2018-11-07T02:24:07.655Z,97620.52
2018-11-07T02:26:37.337Z,97617.19
2018-11-07T02:29:09.222Z,97618.14
2018-11-07T02:31:38.802Z,97616.48
2018-11-07T02:34:08.511Z,97613.53
2018-11-07T02:36:38.095Z,97606.86
2018-11-07T02:39:11.616Z,97605.19
2018-11-07T02:41:41.789Z,97603.14
2018-11-07T02:44:12.542Z,97596.84
2018-11-07T02:46:42.874Z,97585.95
2018-11-07T02:49:12.587Z,97588.38
2018-11-07T02:51:42.218Z,97583.29
2018-11-07T02:54:11.904Z,97583.28
2018-11-07T02:56:41.520Z,97579.14
2018-11-07T02:59:11.198Z,97575.30
2018-11-07T03:01:40.799Z,97571.55
2018-11-07T03:04:10.427Z,97576.16
2018-11-07T03:06:40.044Z,97576.56
2018-11-07T03:09:10.669Z,97576.90
2018-11-07T03:11:40.305Z,97571.00
2018-11-07T03:14:10.284Z,97568.94
2018-11-07T03:16:39.888Z,97577.34
2018-11-07T03:19:09.541Z,97577.30
2018-11-07T03:21:39.204Z,97575.63
2018-11-07T03:24:08.873Z,97579.86
2018-11-07T03:26:38.546Z,97582.77
2018-11-07T03:29:08.178Z,97580.23
2018-11-07T03:31:37.786Z,97576.47
2018-11-07T03:34:07.485Z,97578.97
2018-11-07T03:36:37.097Z,97577.30
2018-11-07T03:39:10.720Z,97589.88
2018-11-07T03:41:40.373Z,97586.53
2018-11-07T03:44:10.689Z,97588.59
2018-11-07T03:46:40.320Z,97593.20
2018-11-07T03:49:10.087Z,97601.50
2018-11-07T03:51:39.793Z,97603.55
2018-11-07T03:54:09.496Z,97609.36
2018-11-07T03:56:39.111Z,97601.38
2018-11-07T03:59:08.863Z,97604.68
2018-11-07T04:01:38.498Z,97601.73
2018-11-07T04:07:07.418Z,97596.67
2018-11-07T04:09:37.077Z,97598.04
2018-11-07T04:12:06.719Z,97598.98
2018-11-07T04:14:36.408Z,97601.06
2018-11-07T04:17:06.030Z,97607.11
2018-11-07T04:19:35.713Z,97601.72
2018-11-07T04:22:05.306Z,97608.70
2018-11-07T04:24:34.928Z,97610.45
2018-11-07T04:27:04.546Z,97605.38
2018-11-07T04:29:34.237Z,97598.59
2018-11-07T04:32:03.842Z,97599.23
2018-11-07T04:34:33.450Z,97593.76
2018-11-07T04:37:03.023Z,97590.41
2018-11-07T04:39:32.651Z,97586.71
2018-11-07T04:42:02.215Z,97584.14
2018-11-07T04:44:31.780Z,97586.20
2018-11-07T04:47:01.584Z,97584.50
2018-11-07T04:49:31.192Z,97586.62
2018-11-07T04:52:00.759Z,97585.36
2018-11-07T04:54:30.391Z,97584.92
2018-11-07T04:57:00.008Z,97584.48
2018-11-07T04:59:29.939Z,97595.43
2018-11-07T05:01:59.613Z,97591.59
2018-11-07T05:04:29.270Z,97599.48
2018-11-07T05:06:58.875Z,97606.59
2018-11-07T05:09:28.578Z,97604.66
2018-11-07T05:11:58.257Z,97605.33
2018-11-07T05:14:27.858Z,97607.48
2018-11-07T05:16:57.432Z,97614.58
2018-11-07T05:19:27.144Z,97612.88
2018-11-07T05:21:56.736Z,97616.64
2018-11-07T05:24:26.424Z,97611.16
2018-11-07T05:26:55.984Z,97622.07
2018-11-07T05:29:25.658Z,97624.19
2018-11-07T05:31:55.296Z,97619.61
2018-11-07T05:34:24.939Z,97613.22
2018-11-07T05:36:54.524Z,97615.73
2018-11-07T05:39:24.151Z,97624.42
2018-11-07T05:41:53.733Z,97618.90
2018-11-07T05:44:23.416Z,97624.02
2018-11-07T05:46:52.986Z,97629.95
2018-11-07T05:49:22.584Z,97631.26
2018-11-07T05:51:52.177Z,97629.50
2018-11-07T05:54:21.821Z,97634.06
2018-11-07T05:56:51.450Z,97633.50
2018-11-07T05:59:21.123Z,97635.18
2018-11-07T06:01:50.739Z,97638.05
2018-11-07T06:04:20.445Z,97631.37
2018-11-07T06:06:50.049Z,97629.70
2018-11-07T06:09:19.638Z,97629.34
2018-11-07T06:11:49.221Z,97627.25
2018-11-07T06:14:18.839Z,97632.66
2018-11-07T06:16:48.427Z,97629.64
2018-11-07T06:19:18.001Z,97636.25
2018-11-07T06:21:47.648Z,97641.78
2018-11-07T06:24:17.361Z,97648.55
2018-11-07T06:26:46.970Z,97651.86
2018-11-07T06:29:16.579Z,97648.13
2018-11-07T06:31:46.303Z,97648.55
2018-11-07T06:34:15.997Z,97647.65
2018-11-07T06:36:45.613Z,97656.83
2018-11-07T06:39:15.257Z,97661.34
2018-11-07T06:41:44.879Z,97663.91
2018-11-07T06:44:14.579Z,97669.36
2018-11-07T06:46:44.188Z,97669.45
2018-11-07T06:49:14.009Z,97667.75
2018-11-07T06:51:43.622Z,97663.98
2018-11-07T06:54:13.336Z,97662.37
2018-11-07T06:56:42.963Z,97674.31
2018-11-07T06:59:12.633Z,97680.88
2018-11-07T07:01:42.300Z,97680.70
2018-11-07T07:04:12.066Z,97678.27
2018-11-07T07:06:41.704Z,97678.40
2018-11-07T07:09:11.746Z,97679.10
2018-11-07T07:11:41.598Z,97685.59
2018-11-07T07:14:11.296Z,97683.42
2018-11-07T07:16:40.926Z,97683.00
2018-11-07T07:19:10.599Z,97685.63
2018-11-07T07:21:40.235Z,97685.23
2018-11-07T07:24:09.955Z,97683.56
2018-11-07T07:26:39.590Z,97688.90
2018-11-07T07:29:10.001Z,97690.89
2018-11-07T07:31:39.602Z,97688.58
2018-11-07T07:34:09.349Z,97686.52
2018-11-07T07:36:38.979Z,97685.39
2018-11-07T07:39:10.275Z,97691.37
2018-11-07T07:41:39.939Z,97688.09
2018-11-07T07:44:09.719Z,97684.84
2018-11-07T07:46:39.302Z,97682.88
2018-11-07T07:49:08.988Z,97689.65
2018-11-07T07:51:38.715Z,97688.75
2018-11-07T07:54:08.500Z,97693.80
2018-11-07T07:56:38.106Z,97686.36
2018-11-07T07:59:07.855Z,97681.36
2018-11-07T08:04:34.565Z,97679.11
2018-11-07T08:07:04.430Z,97682.98
2018-11-07T08:09:33.994Z,97685.16
2018-11-07T08:12:03.733Z,97682.69
2018-11-07T08:14:33.395Z,97681.64
2018-11-07T08:17:03.125Z,97694.91
2018-11-07T08:19:32.741Z,97691.44
2018-11-07T08:22:02.350Z,97696.28
2018-11-07T08:24:31.983Z,97698.23
2018-11-07T08:27:01.633Z,97695.03
2018-11-07T08:29:31.253Z,97697.35
2018-11-07T08:32:00.961Z,97695.42
2018-11-07T08:34:30.562Z,97697.19
2018-11-07T08:37:00.191Z,97702.27
2018-11-07T08:39:29.763Z,97709.08
2018-11-07T08:41:59.388Z,97707.89
2018-11-07T08:44:28.973Z,97716.27
2018-11-07T08:46:58.610Z,97722.53
2018-11-07T08:49:28.231Z,97723.88
2018-11-07T08:51:57.990Z,97731.09
2018-11-07T08:54:27.596Z,97739.03
2018-11-07T08:56:57.672Z,97745.39
2018-11-07T08:59:27.281Z,97748.33
2018-11-07T09:01:56.977Z,97752.56
2018-11-07T09:04:26.627Z,97761.05
2018-11-07T09:06:56.295Z,97772.80
2018-11-07T09:09:25.900Z,97771.53
2018-11-07T09:11:55.651Z,97779.56
2018-11-07T09:14:25.245Z,97787.92
2018-11-07T09:16:54.886Z,97783.30
2018-11-07T09:19:24.463Z,97788.37
2018-11-07T09:21:54.112Z,97781.64
2018-11-07T09:24:23.724Z,97790.89
2018-11-07T09:26:53.425Z,97779.15
2018-11-07T09:29:23.116Z,97773.26
2018-11-07T09:31:52.950Z,97780.84
2018-11-07T09:34:22.542Z,97783.96
2018-11-07T09:36:52.176Z,97781.17
2018-11-07T09:39:21.773Z,97779.63
2018-11-07T09:41:51.502Z,97778.83
2018-11-07T09:44:21.098Z,97779.65
2018-11-07T09:46:50.821Z,97767.86
2018-11-07T09:49:20.448Z,97764.49
2018-11-07T09:51:50.172Z,97765.77
2018-11-07T09:54:19.870Z,97766.95
2018-11-07T09:56:49.455Z,97761.87
2018-11-07T09:59:19.119Z,97751.69
2018-11-07T10:01:48.902Z,97752.98
2018-11-07T10:04:18.413Z,97755.92
2018-11-07T10:06:48.071Z,97759.30
2018-11-07T10:09:17.690Z,97754.06
2018-11-07T10:11:47.378Z,97742.97
2018-11-07T10:14:16.972Z,97732.97
2018-11-07T10:16:46.636Z,97718.41
2018-11-07T10:19:16.240Z,97701.38
2018-11-07T10:21:45.945Z,97713.22
2018-11-07T10:24:15.609Z,97703.88
2018-11-07T10:26:45.358Z,97693.34
2018-11-07T10:29:15.058Z,97687.41
2018-11-07T10:31:44.692Z,97674.70
2018-11-07T10:34:14.357Z,97667.77
2018-11-07T10:36:44.720Z,97670.97
2018-11-07T10:39:14.429Z,97637.46
2018-11-07T10:41:44.131Z,97520.45
2018-11-07T10:44:13.770Z,97449.06
2018-11-07T10:46:43.437Z,97432.58
2018-11-07T10:49:13.109Z,97448.16
2018-11-07T10:51:42.799Z,97436.05
2018-11-07T10:54:12.429Z,97405.77
2018-11-07T10:56:42.100Z,97383.52
2018-11-07T10:59:11.768Z,97376.92
2018-11-07T11:01:46.817Z,97364.81
2018-11-07T11:04:16.443Z,97363.50
2018-11-07T11:06:46.158Z,97373.77
2018-11-07T11:09:15.827Z,97380.53
2018-11-07T11:11:45.724Z,97366.80
2018-11-07T11:14:15.373Z,97390.88
2018-11-07T11:16:45.416Z,97393.63
2018-11-07T11:19:15.126Z,97405.05
2018-11-07T11:21:44.798Z,97425.94
2018-11-07T11:24:14.420Z,97394.34
2018-11-07T11:26:44.148Z,97370.02
2018-11-07T11:29:13.801Z,97352.57
2018-11-07T11:31:43.482Z,97320.38
2018-11-07T11:34:13.328Z,97326.27
2018-11-07T11:36:43.059Z,97329.92
2018-11-07T11:39:13.367Z,97321.86
2018-11-07T11:41:43.677Z,97309.36
2018-11-07T11:44:13.317Z,97319.14
2018-11-07T11:46:43.072Z,97365.70
2018-11-07T11:49:12.715Z,97417.41
2018-11-07T11:51:42.384Z,97509.06
2018-11-07T11:54:12.136Z,97557.45
2018-11-07T11:56:41.889Z,97533.52
2018-11-07T11:59:11.791Z,97464.38
2018-11-07T12:01:41.554Z,97467.42
2018-11-07T12:04:11.211Z,97465.39
2018-11-07T12:06:40.944Z,97460.48
2018-11-07T12:09:11.105Z,97479.91
2018-11-07T12:11:40.781Z,97500.61
2018-11-07T12:14:10.420Z,97491.95
2018-11-07T12:16:40.159Z,97489.78
2018-11-07T12:19:09.792Z,97481.52
2018-11-07T12:21:39.488Z,97454.17
2018-11-07T12:24:09.125Z,97437.54
2018-11-07T12:26:38.876Z,97422.16
2018-11-07T12:29:08.382Z,97414.42
2018-11-07T12:31:38.120Z,97402.39
2018-11-07T12:34:07.714Z,97399.43
2018-11-07T12:36:37.463Z,97395.42
2018-11-07T12:39:09.640Z,97404.51
2018-11-07T12:41:39.257Z,97394.37
2018-11-07T12:44:08.831Z,97386.57
2018-11-07T12:46:38.492Z,97390.09
2018-11-07T12:52:05.395Z,97409.96
2018-11-07T12:54:35.058Z,97401.97
2018-11-07T12:57:04.769Z,97394.83
2018-11-07T12:59:34.522Z,97391.98
2018-11-07T13:02:04.204Z,97391.80
2018-11-07T13:04:34.029Z,97376.34
2018-11-07T13:07:03.622Z,97382.81
2018-11-07T13:09:33.351Z,97380.27
2018-11-07T13:12:02.971Z,97393.48
2018-11-07T13:14:32.632Z,97426.94
2018-11-07T13:17:02.220Z,97417.20
2018-11-07T13:19:31.839Z,97419.92
2018-11-07T13:22:01.442Z,97443.83
2018-11-07T13:24:31.070Z,97450.44
2018-11-07T13:27:00.696Z,97439.07
2018-11-07T13:29:30.413Z,97435.50
2018-11-07T13:32:00.057Z,97438.36
2018-11-07T13:34:29.738Z,97439.16
2018-11-07T13:36:59.505Z,97446.04
2018-11-07T13:39:29.060Z,97466.23
2018-11-07T13:41:58.732Z,97457.36
2018-11-07T13:44:28.454Z,97455.51
2018-11-07T13:46:58.066Z,97454.11
2018-11-07T13:49:27.778Z,97472.32
2018-11-07T13:51:57.415Z,97470.37
2018-11-07T13:54:27.120Z,97487.21
2018-11-07T13:56:56.763Z,97478.50
2018-11-07T13:59:26.530Z,97463.23
2018-11-07T14:01:56.106Z,97456.94
2018-11-07T14:04:25.851Z,97467.45
2018-11-07T14:06:55.479Z,97469.09
2018-11-07T14:09:25.203Z,97485.95
2018-11-07T14:11:54.873Z,97454.83
2018-11-07T14:14:24.666Z,97453.73
2018-11-07T14:16:54.378Z,97468.52
2018-11-07T14:19:24.099Z,97469.66
2018-11-07T14:21:53.860Z,97467.54
2018-11-07T14:24:23.516Z,97447.68
2018-11-07T14:26:53.186Z,97447.49
2018-11-07T14:29:22.822Z,97445.02
2018-11-07T14:31:52.568Z,97443.47
2018-11-07T14:34:22.277Z,97437.77
2018-11-07T14:36:51.910Z,97441.41
2018-11-07T14:39:21.630Z,97443.77
2018-11-07T14:41:51.229Z,97448.50
2018-11-07T14:44:20.841Z,97460.12
2018-11-07T14:46:50.439Z,97517.48
2018-11-07T14:49:20.137Z,97660.73
2018-11-07T14:51:49.744Z,97864.44
2018-11-07T14:54:19.410Z,97562.85
2018-11-07T14:56:48.978Z,97535.70
2018-11-07T14:59:18.586Z,97524.22
2018-11-07T15:01:48.174Z,97493.22
2018-11-07T15:04:17.817Z,97517.09
2018-11-07T15:06:47.398Z,97536.45
2018-11-07T15:09:17.055Z,97569.54
2018-11-07T15:11:46.649Z,97580.66
2018-11-07T15:14:16.344Z,97609.97
2018-11-07T15:16:45.925Z,97631.73
2018-11-07T15:19:16.401Z,97651.67
2018-11-07T15:21:45.990Z,97664.09
2018-11-07T15:24:15.695Z,97686.55
2018-11-07T15:26:45.396Z,97698.03
2018-11-07T15:29:15.020Z,97715.90
2018-11-07T15:31:44.630Z,97727.45
2018-11-07T15:34:14.681Z,97738.97
2018-11-07T15:36:44.285Z,97748.25
2018-11-07T15:39:14.011Z,97761.06
2018-11-07T15:41:43.983Z,97773.91
2018-11-07T15:44:13.698Z,97787.17
2018-11-07T15:46:43.321Z,97802.16
2018-11-07T15:49:12.989Z,97830.33
2018-11-07T15:51:42.686Z,97867.25
2018-11-07T15:54:12.352Z,97877.88
2018-11-07T15:56:42.004Z,97912.55
2018-11-07T15:59:11.628Z,97935.35
2018-11-07T16:01:41.225Z,97951.02
2018-11-07T16:04:10.878Z,97958.19
2018-11-07T16:06:40.487Z,97973.77
2018-11-07T16:09:11.093Z,97977.98
2018-11-07T16:11:40.684Z,97975.07
2018-11-07T16:14:10.301Z,97980.95
2018-11-07T16:16:39.900Z,97981.81
2018-11-07T16:19:09.514Z,97977.61
2018-11-07T16:21:39.123Z,97971.70
2018-11-07T16:24:08.791Z,97986.06
2018-11-07T16:26:38.369Z,97985.66
2018-11-07T16:29:08.031Z,97993.25
2018-11-07T16:31:37.624Z,97991.55
2018-11-07T16:34:07.263Z,97994.49
2018-11-07T16:36:36.885Z,97986.91
2018-11-07T16:39:09.968Z,97996.17
2018-11-07T16:41:39.665Z,97992.83
2018-11-07T16:44:09.191Z,97998.28
2018-11-07T16:46:38.778Z,97999.99
2018-11-07T16:49:08.387Z,97999.56
2018-11-07T16:51:37.956Z,98004.18
2018-11-07T16:54:10.292Z,98010.09
2018-11-07T16:56:39.865Z,98004.20
2018-11-07T16:59:09.540Z,97999.53
2018-11-07T17:01:39.076Z,98003.73
2018-11-07T17:04:08.707Z,98007.11
2018-11-07T17:06:38.359Z,98014.70
2018-11-07T17:09:09.433Z,98015.94
2018-11-07T17:11:39.343Z,98012.98
2018-11-07T17:14:09.267Z,98009.58
2018-11-07T17:16:38.956Z,98013.34
2018-11-07T17:19:08.559Z,98004.50
2018-11-07T17:21:38.186Z,98008.70
2018-11-07T17:27:05.402Z,97993.52
2018-11-07T17:29:35.097Z,98004.43
2018-11-07T17:32:04.874Z,98004.87
2018-11-07T17:34:34.541Z,98003.52
2018-11-07T17:37:04.246Z,97999.72
2018-11-07T17:39:33.956Z,97992.53
2018-11-07T17:42:03.587Z,98000.12
2018-11-07T17:44:33.294Z,97992.95
2018-11-07T17:47:02.945Z,97994.61
2018-11-07T17:49:32.723Z,97995.48
2018-11-07T17:52:02.412Z,97997.58
2018-11-07T17:54:32.133Z,97992.48
2018-11-07T17:57:01.736Z,97970.54
2018-11-07T17:59:31.400Z,97969.67
2018-11-07T18:02:01.034Z,97971.35
2018-11-07T18:04:30.900Z,97975.59
2018-11-07T18:07:00.505Z,97979.38
2018-11-07T18:09:30.369Z,97982.33
2018-11-07T18:11:59.989Z,97976.39
2018-11-07T18:14:29.682Z,97979.36
2018-11-07T18:16:59.315Z,97976.80
2018-11-07T18:19:28.982Z,97978.03
2018-11-07T18:21:58.659Z,97986.48
2018-11-07T18:24:28.405Z,97988.55
2018-11-07T18:26:58.046Z,97990.21
2018-11-07T18:29:27.620Z,97994.41
2018-11-07T18:31:57.396Z,97999.39
2018-11-07T18:34:27.016Z,97998.98
2018-11-07T18:36:57.338Z,97999.77
2018-11-07T18:39:26.965Z,97997.30
2018-11-07T18:41:56.558Z,97996.02
2018-11-07T18:44:26.280Z,98003.57
2018-11-07T18:46:55.894Z,98004.34
2018-11-07T18:49:25.681Z,98011.41
2018-11-07T18:51:55.417Z,98016.45
2018-11-07T18:54:25.093Z,98015.56
2018-11-07T18:56:54.710Z,98017.69
2018-11-07T18:59:24.444Z,98017.69
2018-11-07T19:01:54.084Z,98028.13
2018-11-07T19:04:23.737Z,98023.08
2018-11-07T19:06:53.399Z,98026.42
2018-11-07T19:09:23.050Z,98024.61
2018-11-07T19:11:52.675Z,98023.85
2018-11-07T19:14:22.390Z,98020.91
2018-11-07T19:16:52.095Z,98023.80
2018-11-07T19:19:21.669Z,98027.19
2018-11-07T19:21:51.282Z,98030.16
2018-11-07T19:24:20.891Z,98033.47
2018-11-07T19:26:50.755Z,98032.96
2018-11-07T19:29:20.316Z,98027.77
2018-11-07T19:31:49.945Z,98032.88
2018-11-07T19:34:19.671Z,98036.75
2018-11-07T19:36:49.342Z,98034.70
2018-11-07T19:39:19.082Z,98036.63
2018-11-07T19:41:48.949Z,98048.03
2018-11-07T19:44:18.645Z,98051.78
2018-11-07T19:46:48.304Z,98055.20
2018-11-07T19:49:18.020Z,98057.23
2018-11-07T19:51:47.658Z,98056.67
2018-11-07T19:54:17.324Z,98061.62
2018-11-07T19:56:46.977Z,98065.43
2018-11-07T19:59:16.586Z,98055.36
2018-11-07T20:01:46.314Z,98055.50
2018-11-07T20:04:15.911Z,98063.45
2018-11-07T20:06:45.631Z,98065.52
2018-11-07T20:09:15.268Z,98069.81
2018-11-07T20:11:44.999Z,98068.91
2018-11-07T20:14:14.666Z,98074.34
2018-11-07T20:16:44.319Z,98069.81
2018-11-07T20:19:14.199Z,98078.66
2018-11-07T20:21:43.968Z,98082.32
2018-11-07T20:24:13.602Z,98087.78
2018-11-07T20:26:43.597Z,98087.45
2018-11-07T20:29:13.255Z,98085.16
2018-11-07T20:31:42.835Z,98092.62
2018-11-07T20:34:12.464Z,98085.20
2018-11-07T20:36:42.096Z,98095.08
2018-11-07T20:39:12.878Z,98093.61
2018-11-07T20:41:42.937Z,98100.98
2018-11-07T20:44:12.638Z,98103.61
2018-11-07T20:46:42.215Z,98110.59
2018-11-07T20:49:11.809Z,98103.33
2018-11-07T20:51:41.400Z,98107.22
2018-11-07T20:54:11.031Z,98114.17
2018-11-07T20:56:40.602Z,98110.08
2018-11-07T20:59:10.280Z,98109.70
2018-11-07T21:01:39.886Z,98106.38
2018-11-07T21:04:09.572Z,98099.66
2018-11-07T21:06:39.154Z,98100.88
2018-11-07T21:09:11.241Z,98103.53
2018-11-07T21:11:41.154Z,98111.05
2018-11-07T21:14:10.800Z,98113.86
2018-11-07T21:16:40.453Z,98111.87
2018-11-07T21:19:10.079Z,98114.59
2018-11-07T21:21:39.705Z,98116.88
2018-11-07T21:24:09.516Z,98121.16
2018-11-07T21:34:33.567Z,98133.55
2018-11-07T21:37:02.780Z,98140.02
2018-11-07T21:39:31.990Z,98145.88
2018-11-07T21:42:01.222Z,98155.47
2018-11-07T21:44:30.422Z,98157.02
2018-11-07T21:46:59.613Z,98164.62
2018-11-07T21:49:28.822Z,98172.97
2018-11-07T21:51:58.038Z,98181.34
2018-11-07T21:54:27.232Z,98178.73
2018-11-07T21:56:56.426Z,98185.27
2018-11-07T21:59:25.653Z,98181.48
2018-11-07T22:01:54.845Z,98183.75
2018-11-07T22:04:24.041Z,98186.78
2018-11-07T22:06:53.253Z,98190.05
2018-11-07T22:09:22.463Z,98191.92
2018-11-07T22:11:51.661Z,98196.66
2018-11-07T22:14:20.845Z,98202.59
2018-11-07T22:16:50.070Z,98211.45
2018-11-07T22:19:19.261Z,98216.24
2018-11-07T22:21:48.469Z,98216.39
2018-11-07T22:24:17.716Z,98221.85
2018-11-07T22:26:46.869Z,98228.17
2018-11-07T22:29:16.041Z,98224.03
2018-11-07T22:31:45.315Z,98225.75
2018-11-07T22:34:14.406Z,98226.77
2018-11-07T22:36:43.574Z,98233.48
2018-11-07T22:39:14.145Z,98236.41
2018-11-07T22:41:44.179Z,98243.50
2018-11-07T22:44:13.349Z,98246.11
2018-11-07T22:46:42.571Z,98241.95
2018-11-07T22:49:11.750Z,98246.77
2018-11-07T22:51:40.921Z,98245.93
2018-11-07T22:54:10.091Z,98247.73
2018-11-07T22:56:39.267Z,98253.28
2018-11-07T22:59:08.438Z,98256.97
2018-11-07T23:01:39.494Z,98253.94
2018-11-07T23:04:08.995Z,98256.27
2018-11-07T23:06:39.126Z,98259.30
2018-11-07T23:09:11.694Z,98253.38
2018-11-07T23:11:41.922Z,98255.66
2018-11-07T23:14:12.558Z,98260.28
2018-11-07T23:16:42.570Z,98264.58
2018-11-07T23:19:12.543Z,98262.80
2018-11-07T23:21:41.769Z,98261.21
2018-11-07T23:24:10.907Z,98262.99
2018-11-07T23:26:40.106Z,98268.07
2018-11-07T23:29:09.311Z,98271.16
2018-11-07T23:31:38.510Z,98271.62
2018-11-07T23:34:07.719Z,98265.91
2018-11-07T23:36:36.915Z,98262.78
2018-11-07T23:39:09.136Z,98261.65
2018-11-07T23:41:38.337Z,98262.03
2018-11-07T23:44:07.537Z,98260.47
2018-11-07T23:46:36.730Z,98259.97
2018-11-07T23:49:06.049Z,98270.07
2018-11-07T23:51:35.249Z,98274.49
2018-11-07T23:54:04.454Z,98268.48
2018-11-07T23:56:33.645Z,98273.38
2018-11-07T23:59:02.841Z,98274.58
